Woodsprings, Arizona
Current Conditions -  °F | °C
As of 2:53 PM on Sunday 23 Nov 2014 (Local Time) from KGUP Reporting Station
Clear Clear  
Wind Chill: 30°   Ceiling: Unl
Heat Index: 39°   Visibility: 10mi
Dew Point:   Wind: 17mph
Humidity: 23%   Direction: 320°NW
Pressure: 30.03"   Gusts: 32mph
Location:  35.6053°N, 109.458°W
Report Text: KGUP 232153Z AUTO 32015G28KT 10SM CLR 04/M16 A3003 RMK AO2 PK WND 33033/2133 SLP152 T00391156
Loading
Personal Weather Stations






























Interactive Weather Map New forecast layout! Learn more

10-Day Weather Forecast

Advertisements
Track Severe Weather on mobile